createdAt,value
2018-12-02T00:00:25.008Z,1.10
2018-12-02T00:02:54.003Z,0.80
2018-12-02T00:05:22.789Z,0.83
2018-12-02T00:07:51.243Z,1.10
2018-12-02T00:10:20.483Z,1.23
2018-12-02T00:12:48.982Z,1.40
2018-12-02T00:15:21.427Z,0.80
2018-12-02T00:17:51.046Z,0.90
2018-12-02T00:20:19.486Z,0.80
2018-12-02T00:22:47.927Z,0.70
2018-12-02T00:25:16.675Z,0.70
2018-12-02T00:27:48.064Z,1.97
2018-12-02T00:30:24.331Z,2.07
2018-12-02T00:32:52.821Z,0.93
2018-12-02T00:35:21.263Z,1.60
2018-12-02T00:37:51.048Z,0.90
2018-12-02T00:40:20.460Z,0.70
2018-12-02T00:42:54.222Z,1.10
2018-12-02T00:45:28.675Z,0.70
2018-12-02T00:47:57.173Z,0.70
2018-12-02T00:50:25.643Z,0.80
2018-12-02T00:52:55.287Z,0.80
2018-12-02T00:55:25.687Z,0.70
2018-12-02T00:57:54.171Z,1.53
2018-12-02T01:00:22.659Z,0.70
2018-12-02T01:02:51.560Z,0.70
2018-12-02T01:05:21.098Z,0.80
2018-12-02T01:07:49.563Z,1.13
2018-12-02T01:10:19.034Z,0.70
2018-12-02T01:12:48.314Z,0.90
2018-12-02T01:15:18.059Z,1.57
2018-12-02T01:17:46.510Z,2.80
2018-12-02T01:20:18.503Z,1.00
2018-12-02T01:22:46.956Z,0.80
2018-12-02T01:25:15.750Z,3.33
2018-12-02T01:27:44.997Z,0.97
2018-12-02T01:30:14.518Z,0.80
2018-12-02T01:32:42.977Z,0.83
2018-12-02T01:35:11.984Z,0.90
2018-12-02T01:37:40.852Z,1.00
2018-12-02T01:40:13.530Z,1.50
2018-12-02T01:42:42.104Z,1.23
2018-12-02T01:45:14.295Z,0.83
2018-12-02T01:47:42.799Z,2.03
2018-12-02T01:50:15.275Z,1.10
2018-12-02T01:52:44.530Z,1.23
2018-12-02T01:55:13.021Z,1.57
2018-12-02T01:57:41.472Z,0.80
2018-12-02T02:00:20.007Z,0.90
2018-12-02T02:02:48.577Z,0.90
2018-12-02T02:05:17.924Z,0.80
2018-12-02T02:07:46.403Z,1.23
2018-12-02T02:10:16.083Z,0.90
2018-12-02T02:12:44.534Z,0.73
2018-12-02T02:15:14.304Z,0.80
2018-12-02T02:17:42.751Z,1.03
2018-12-02T02:20:13.443Z,1.90
2018-12-02T02:22:42.059Z,0.80
2018-12-02T02:25:11.668Z,1.00
2018-12-02T02:27:41.089Z,2.10
2018-12-02T02:30:11.552Z,1.00
2018-12-02T02:32:40.035Z,0.90
2018-12-02T02:35:08.801Z,1.40
2018-12-02T02:37:37.264Z,2.83
2018-12-02T02:40:12.807Z,1.13
2018-12-02T02:42:41.284Z,0.70
2018-12-02T02:45:10.684Z,0.70
2018-12-02T02:47:39.157Z,1.07
2018-12-02T02:50:15.047Z,2.30
2018-12-02T02:52:44.852Z,2.00
2018-12-02T02:55:13.371Z,0.90
2018-12-02T02:57:41.808Z,4.20
2018-12-02T03:00:13.490Z,1.30
2018-12-02T03:02:41.904Z,0.70
2018-12-02T03:05:11.532Z,0.70
2018-12-02T03:07:40.074Z,1.63
2018-12-02T03:10:13.707Z,2.30
2018-12-02T03:12:42.405Z,1.83
2018-12-02T03:15:12.042Z,0.90
2018-12-02T03:17:40.559Z,1.10
2018-12-02T03:20:13.198Z,0.90
2018-12-02T03:22:42.606Z,1.07
2018-12-02T03:25:12.127Z,0.90
2018-12-02T03:27:40.574Z,0.70
2018-12-02T03:30:11.353Z,0.90
2018-12-02T03:32:40.079Z,0.80
2018-12-02T03:35:09.992Z,0.80
2018-12-02T03:37:38.468Z,4.53
2018-12-02T03:40:12.268Z,2.40
2018-12-02T03:42:40.738Z,0.80
2018-12-02T03:45:11.630Z,3.90
2018-12-02T03:47:40.103Z,0.77
2018-12-02T03:50:17.390Z,1.37
2018-12-02T03:52:42.276Z,0.70
2018-12-02T03:55:10.822Z,1.00
2018-12-02T03:57:39.293Z,0.70
2018-12-02T04:00:20.232Z,0.70
2018-12-02T04:02:48.796Z,0.70
2018-12-02T04:05:18.292Z,0.70
2018-12-02T04:07:46.783Z,0.80
2018-12-02T04:10:17.282Z,0.77
2018-12-02T04:12:46.527Z,0.70
2018-12-02T04:15:17.759Z,0.70
2018-12-02T04:17:46.912Z,0.90
2018-12-02T04:20:16.215Z,0.80
2018-12-02T04:22:45.231Z,2.90
2018-12-02T04:25:14.789Z,0.83
2018-12-02T04:27:43.230Z,0.70
2018-12-02T04:30:13.775Z,0.70
2018-12-02T04:32:42.260Z,0.70
2018-12-02T04:35:11.878Z,1.07
2018-12-02T04:37:40.364Z,0.70
2018-12-02T04:40:10.846Z,0.93
2018-12-02T04:42:39.282Z,0.70
2018-12-02T04:45:11.259Z,0.70
2018-12-02T04:47:39.678Z,0.90
2018-12-02T04:50:12.743Z,1.27
2018-12-02T04:52:41.207Z,0.80
2018-12-02T04:55:10.208Z,1.97
2018-12-02T04:57:38.703Z,0.80
2018-12-02T05:00:10.212Z,0.90
2018-12-02T05:02:38.639Z,0.80
2018-12-02T05:05:11.145Z,0.80
2018-12-02T05:07:40.369Z,0.90
2018-12-02T05:10:13.389Z,0.70
2018-12-02T05:12:41.879Z,0.70
2018-12-02T05:15:14.361Z,0.70
2018-12-02T05:17:42.815Z,0.80
2018-12-02T05:20:13.251Z,0.70
2018-12-02T05:22:41.671Z,0.80
2018-12-02T05:25:17.094Z,0.70
2018-12-02T05:27:39.401Z,0.70
2018-12-02T05:30:11.267Z,0.70
2018-12-02T05:32:40.015Z,0.70
2018-12-02T05:35:09.335Z,0.83
2018-12-02T05:37:37.820Z,0.70
2018-12-02T05:40:10.708Z,0.70
2018-12-02T05:42:39.228Z,0.70
2018-12-02T05:45:16.724Z,0.80
2018-12-02T05:47:45.251Z,0.70
2018-12-02T05:50:16.699Z,0.70
2018-12-02T05:52:47.260Z,0.90
2018-12-02T05:55:17.135Z,1.17
2018-12-02T05:57:45.566Z,0.70
2018-12-02T06:00:18.086Z,0.70
2018-12-02T06:02:46.577Z,0.70
2018-12-02T06:05:14.969Z,1.00
2018-12-02T06:07:43.471Z,0.70
2018-12-02T06:10:13.987Z,0.80
2018-12-02T06:12:42.550Z,7.40
2018-12-02T06:15:18.879Z,0.80
2018-12-02T06:17:47.499Z,0.70
2018-12-02T06:20:19.013Z,0.70
2018-12-02T06:22:48.100Z,0.80
2018-12-02T06:25:16.593Z,2.10
2018-12-02T06:27:45.359Z,0.73
2018-12-02T06:30:25.573Z,0.80
2018-12-02T06:33:01.243Z,0.97
2018-12-02T06:35:29.702Z,1.20
2018-12-02T06:37:59.194Z,0.80
2018-12-02T06:40:28.551Z,1.13
2018-12-02T06:42:56.998Z,0.80
2018-12-02T06:45:25.440Z,0.87
2018-12-02T06:47:53.964Z,0.80
2018-12-02T06:50:25.108Z,0.70
2018-12-02T06:52:54.337Z,0.80
2018-12-02T06:55:33.343Z,0.80
2018-12-02T06:58:41.575Z,0.70
2018-12-02T07:01:25.787Z,0.70
2018-12-02T07:04:05.618Z,0.97
2018-12-02T07:06:34.039Z,0.90
2018-12-02T07:09:02.471Z,2.30
2018-12-02T07:11:30.911Z,0.80
2018-12-02T07:13:59.388Z,0.83
2018-12-02T07:16:27.803Z,0.77
2018-12-02T07:18:59.296Z,0.70
2018-12-02T07:21:32.777Z,0.70
2018-12-02T07:24:04.376Z,0.90
2018-12-02T07:26:33.731Z,0.80
2018-12-02T07:29:02.187Z,0.90
2018-12-02T07:31:30.624Z,0.80
2018-12-02T07:33:59.126Z,0.80
2018-12-02T07:36:27.572Z,0.80
2018-12-02T07:39:08.797Z,0.90
2018-12-02T07:41:37.256Z,2.40
2018-12-02T07:44:05.774Z,0.90
2018-12-02T07:46:34.239Z,1.00
2018-12-02T07:49:02.683Z,2.30
2018-12-02T07:51:31.072Z,1.20
2018-12-02T07:53:59.521Z,1.10
2018-12-02T07:56:27.956Z,0.90
2018-12-02T07:58:56.411Z,0.93
2018-12-02T08:01:24.889Z,1.37
2018-12-02T08:03:53.306Z,1.10
2018-12-02T08:06:21.757Z,3.30
2018-12-02T08:08:50.194Z,0.80
2018-12-02T08:11:18.645Z,0.90
2018-12-02T08:13:47.072Z,7.10
2018-12-02T08:16:15.487Z,1.83
2018-12-02T08:18:43.969Z,1.27
2018-12-02T08:21:12.512Z,0.80
2018-12-02T08:23:40.947Z,1.43
2018-12-02T08:26:09.373Z,1.13
2018-12-02T08:28:37.807Z,0.80
2018-12-02T08:31:06.295Z,1.37
2018-12-02T08:33:34.735Z,1.00
2018-12-02T08:36:03.238Z,1.00
2018-12-02T08:38:31.666Z,2.90
2018-12-02T08:41:00.134Z,1.20
2018-12-02T08:43:28.563Z,1.10
2018-12-02T08:45:57.024Z,0.70
2018-12-02T08:48:25.447Z,0.97
2018-12-02T08:50:53.881Z,3.33
2018-12-02T08:53:22.297Z,2.10
2018-12-02T08:55:50.798Z,1.13
2018-12-02T08:58:19.255Z,1.30
2018-12-02T09:00:47.724Z,1.40
2018-12-02T09:03:16.147Z,3.93
2018-12-02T09:05:44.583Z,2.20
2018-12-02T09:08:13.097Z,1.20
2018-12-02T09:10:42.214Z,1.73
2018-12-02T09:13:10.780Z,1.83
2018-12-02T09:15:39.210Z,2.00
2018-12-02T09:18:09.699Z,1.43
2018-12-02T09:20:38.148Z,2.20
2018-12-02T09:23:08.279Z,1.97
2018-12-02T09:25:36.812Z,1.50
2018-12-02T09:28:05.645Z,1.30
2018-12-02T09:30:35.149Z,1.43
2018-12-02T09:33:03.605Z,2.53
2018-12-02T09:35:32.043Z,1.40
2018-12-02T09:38:00.654Z,1.80
2018-12-02T09:40:29.198Z,3.07
2018-12-02T09:42:57.644Z,1.60
2018-12-02T09:45:29.150Z,1.10
2018-12-02T09:47:58.888Z,1.57
2018-12-02T09:50:27.313Z,1.53
2018-12-02T09:52:55.764Z,1.33
2018-12-02T09:55:29.672Z,3.00
2018-12-02T09:57:58.418Z,2.77
2018-12-02T10:00:26.942Z,1.20
2018-12-02T10:02:55.483Z,1.27
2018-12-02T10:05:23.936Z,2.50
2018-12-02T10:07:52.377Z,2.90
2018-12-02T10:10:22.686Z,1.17
2018-12-02T10:13:00.647Z,1.30
2018-12-02T10:15:29.063Z,1.17
2018-12-02T10:17:57.566Z,1.33
2018-12-02T10:20:26.022Z,1.80
2018-12-02T10:22:54.463Z,1.30
2018-12-02T10:25:22.881Z,1.60
2018-12-02T10:27:51.336Z,1.13
2018-12-02T10:30:20.867Z,1.00
2018-12-02T10:32:49.830Z,1.10
2018-12-02T10:35:18.295Z,1.63
2018-12-02T10:37:46.987Z,1.30
2018-12-02T10:40:17.341Z,1.60
2018-12-02T10:42:46.169Z,2.13
2018-12-02T10:45:19.469Z,7.73
2018-12-02T10:47:48.200Z,3.90
2018-12-02T10:50:24.555Z,2.30
2018-12-02T10:52:55.387Z,5.07
2018-12-02T10:55:35.493Z,4.33
2018-12-02T10:58:04.042Z,2.73
2018-12-02T11:00:37.979Z,4.80
2018-12-02T11:03:06.453Z,4.90
2018-12-02T11:05:34.856Z,1.87
2018-12-02T11:08:03.296Z,3.10
2018-12-02T11:10:31.814Z,2.70
2018-12-02T11:13:00.271Z,1.70
2018-12-02T11:15:28.698Z,2.97
2018-12-02T11:17:57.167Z,2.47
2018-12-02T11:20:25.815Z,2.30
2018-12-02T11:22:54.259Z,2.43
2018-12-02T11:25:22.700Z,4.70
2018-12-02T11:27:51.339Z,8.83
2018-12-02T11:30:19.788Z,3.00
2018-12-02T11:32:48.646Z,4.17
2018-12-02T11:35:18.260Z,5.10
2018-12-02T11:37:47.307Z,9.00
2018-12-02T11:40:17.974Z,4.93
2018-12-02T11:42:46.641Z,4.43
2018-12-02T11:45:16.752Z,4.37
2018-12-02T11:47:46.380Z,4.00
2018-12-02T11:50:15.785Z,3.40
2018-12-02T11:52:45.146Z,3.23
2018-12-02T11:55:14.589Z,3.97
2018-12-02T11:57:43.005Z,3.80
2018-12-02T12:00:25.655Z,3.30
2018-12-02T12:02:54.853Z,3.30
2018-12-02T12:05:23.348Z,3.57
2018-12-02T12:07:51.795Z,4.13
2018-12-02T12:10:24.236Z,6.70
2018-12-02T12:12:54.929Z,5.47
2018-12-02T12:15:24.470Z,2.37
2018-12-02T12:17:53.441Z,1.80
2018-12-02T12:20:29.997Z,2.07
2018-12-02T12:22:58.492Z,1.90
2018-12-02T12:25:27.285Z,2.97
2018-12-02T12:27:57.016Z,3.80
2018-12-02T12:30:26.590Z,1.50
2018-12-02T12:32:55.267Z,1.60
2018-12-02T12:35:24.347Z,2.40
2018-12-02T12:37:52.808Z,2.03
2018-12-02T12:40:23.529Z,3.10
2018-12-02T12:43:00.771Z,3.13
2018-12-02T12:45:29.211Z,2.97
2018-12-02T12:47:57.626Z,7.63
2018-12-02T12:50:26.048Z,5.37
2018-12-02T12:52:54.512Z,5.00
2018-12-02T12:55:22.965Z,2.57
2018-12-02T12:57:51.423Z,2.80
2018-12-02T13:00:21.884Z,4.30
2018-12-02T13:02:50.388Z,2.10
2018-12-02T13:05:20.072Z,7.60
2018-12-02T13:07:48.564Z,4.10
2018-12-02T13:10:17.668Z,1.70
2018-12-02T13:12:46.136Z,3.10
2018-12-02T13:15:18.479Z,2.33
2018-12-02T13:18:06.289Z,6.27
2018-12-02T13:20:51.769Z,3.80
2018-12-02T13:23:20.251Z,3.10
2018-12-02T13:25:48.684Z,4.83
2018-12-02T13:28:17.142Z,4.17
2018-12-02T13:30:45.740Z,4.20
2018-12-02T13:33:14.152Z,3.57
2018-12-02T13:35:42.598Z,4.47
2018-12-02T13:38:11.132Z,5.70
2018-12-02T13:40:40.686Z,3.20
2018-12-02T13:43:15.730Z,1.90
2018-12-02T13:45:46.123Z,2.20
2018-12-02T13:48:15.562Z,2.10
2018-12-02T13:50:45.013Z,3.27
2018-12-02T13:53:13.475Z,2.40
2018-12-02T13:55:44.069Z,2.40
2018-12-02T13:58:12.547Z,2.53
2018-12-02T14:00:43.151Z,3.50
2018-12-02T14:03:14.896Z,5.43
2018-12-02T14:05:45.400Z,2.13
2018-12-02T14:08:13.903Z,2.37
2018-12-02T14:10:42.584Z,3.87
2018-12-02T14:13:27.317Z,3.73
2018-12-02T14:16:04.899Z,2.47
2018-12-02T14:18:37.555Z,7.33
2018-12-02T14:21:06.600Z,2.30
2018-12-02T14:23:35.766Z,4.87
2018-12-02T14:26:06.794Z,3.30
2018-12-02T14:28:39.823Z,3.97
2018-12-02T14:31:08.268Z,3.20
2018-12-02T14:33:36.665Z,2.73
2018-12-02T14:36:05.250Z,2.43
2018-12-02T14:38:33.675Z,4.57
2018-12-02T14:41:02.154Z,2.93
2018-12-02T14:43:30.550Z,4.03
2018-12-02T14:45:59.015Z,6.77
2018-12-02T14:48:27.495Z,2.50
2018-12-02T14:50:55.928Z,2.90
2018-12-02T14:53:24.346Z,6.53
2018-12-02T14:55:52.816Z,7.23
2018-12-02T14:58:21.291Z,4.70
2018-12-02T15:00:49.797Z,3.00
2018-12-02T15:03:18.248Z,4.20
2018-12-02T15:05:46.730Z,7.30
2018-12-02T15:08:15.200Z,3.07
2018-12-02T15:10:43.692Z,3.30
2018-12-02T15:13:12.106Z,3.30
2018-12-02T15:15:40.877Z,2.60
2018-12-02T15:18:09.311Z,4.10
2018-12-02T15:20:37.826Z,2.30
2018-12-02T15:23:07.212Z,6.10
2018-12-02T15:25:35.938Z,4.00
2018-12-02T15:28:04.427Z,23.97
2018-12-02T15:30:32.901Z,11.00
2018-12-02T15:33:01.330Z,4.80
2018-12-02T15:35:29.824Z,3.70
2018-12-02T15:37:58.315Z,3.67
2018-12-02T15:40:26.821Z,3.90
2018-12-02T15:42:55.288Z,3.03
2018-12-02T15:45:23.811Z,5.50
2018-12-02T15:47:52.273Z,6.03
2018-12-02T15:50:21.994Z,6.10
2018-12-02T15:52:50.967Z,3.27
2018-12-02T15:55:25.940Z,3.50
2018-12-02T15:57:54.640Z,4.43
2018-12-02T16:00:27.453Z,12.10
2018-12-02T16:02:55.871Z,4.73
2018-12-02T16:05:24.343Z,5.67
2018-12-02T16:07:52.785Z,4.67
2018-12-02T16:10:21.205Z,4.23
2018-12-02T16:12:50.857Z,5.30
2018-12-02T16:15:20.812Z,4.83
2018-12-02T16:17:50.288Z,7.00
2018-12-02T16:20:22.112Z,5.43
2018-12-02T16:22:50.651Z,8.90
2018-12-02T16:25:19.091Z,6.17
2018-12-02T16:27:47.594Z,5.77
2018-12-02T16:30:16.978Z,6.00
2018-12-02T16:32:47.099Z,6.17
2018-12-02T16:35:15.992Z,4.53
2018-12-02T16:37:45.253Z,6.13
2018-12-02T16:40:29.089Z,5.60
2018-12-02T16:42:58.014Z,5.23
2018-12-02T16:45:26.447Z,7.20
2018-12-02T16:47:56.257Z,5.40
2018-12-02T16:50:31.270Z,4.60
2018-12-02T16:53:33.666Z,5.03
2018-12-02T16:56:10.198Z,4.60
2018-12-02T16:58:46.987Z,5.87
2018-12-02T17:01:18.952Z,5.20
2018-12-02T17:03:48.037Z,5.03
2018-12-02T17:06:16.523Z,7.37
2018-12-02T17:08:44.960Z,6.37
2018-12-02T17:11:13.540Z,5.70
2018-12-02T17:13:41.992Z,7.20
2018-12-02T17:16:10.499Z,5.60
2018-12-02T17:18:39.055Z,6.63
2018-12-02T17:21:07.591Z,7.60
2018-12-02T17:23:36.056Z,6.20
2018-12-02T17:26:04.554Z,7.23
2018-12-02T17:28:33.011Z,9.50
2018-12-02T17:31:04.800Z,8.30
2018-12-02T17:33:33.355Z,6.93
2018-12-02T17:36:02.079Z,8.00
2018-12-02T17:38:30.552Z,8.33
2018-12-02T17:40:58.991Z,8.57
2018-12-02T17:43:27.415Z,7.97
2018-12-02T17:45:55.866Z,6.10
2018-12-02T17:48:24.355Z,8.67
2018-12-02T17:50:52.815Z,3.17
2018-12-02T17:53:21.283Z,2.10
2018-12-02T17:55:49.732Z,5.57
2018-12-02T17:58:18.202Z,2.73
2018-12-02T18:00:46.756Z,5.03
2018-12-02T18:03:20.762Z,3.30
2018-12-02T18:05:49.451Z,3.70
2018-12-02T18:08:17.918Z,2.07
2018-12-02T18:10:46.358Z,2.10
2018-12-02T18:13:14.772Z,1.60
2018-12-02T18:15:43.195Z,1.43
2018-12-02T18:18:11.814Z,1.73
2018-12-02T18:20:40.270Z,1.30
2018-12-02T18:23:08.724Z,1.30
2018-12-02T18:25:37.212Z,3.00
2018-12-02T18:28:05.771Z,1.37
2018-12-02T18:30:34.220Z,1.37
2018-12-02T18:33:03.170Z,2.40
2018-12-02T18:35:55.300Z,1.73
2018-12-02T18:38:25.064Z,3.07
2018-12-02T18:41:11.632Z,4.83
2018-12-02T18:43:40.082Z,2.13
2018-12-02T18:46:08.875Z,1.80
2018-12-02T18:48:37.310Z,1.77
2018-12-02T18:51:06.621Z,4.00
2018-12-02T18:53:35.123Z,2.63
2018-12-02T18:56:03.597Z,4.50
2018-12-02T18:58:32.020Z,4.30
2018-12-02T19:01:00.476Z,2.90
2018-12-02T19:03:28.898Z,1.70
2018-12-02T19:05:57.347Z,3.47
2018-12-02T19:08:25.802Z,4.60
2018-12-02T19:10:56.878Z,2.90
2018-12-02T19:13:25.348Z,7.50
2018-12-02T19:15:53.808Z,3.33
2018-12-02T19:18:22.356Z,2.33
2018-12-02T19:20:52.556Z,4.03
2018-12-02T19:23:23.440Z,3.20
2018-12-02T19:25:51.903Z,3.73
2018-12-02T19:28:20.422Z,3.83
2018-12-02T19:30:48.855Z,3.57
2018-12-02T19:33:20.540Z,7.50
2018-12-02T19:35:50.041Z,6.27
2018-12-02T19:38:20.396Z,3.90
2018-12-02T19:40:48.838Z,3.93
2018-12-02T19:43:17.283Z,2.90
2018-12-02T19:45:47.203Z,4.97
2018-12-02T19:48:16.591Z,6.00
2018-12-02T19:50:45.141Z,4.33
2018-12-02T19:53:13.583Z,7.47
2018-12-02T19:55:42.074Z,4.73
2018-12-02T19:58:11.675Z,6.00
2018-12-02T20:00:41.211Z,4.13
2018-12-02T20:03:10.503Z,4.43
2018-12-02T20:05:39.408Z,3.40
2018-12-02T20:08:09.430Z,3.53
2018-12-02T20:10:38.399Z,5.87
2018-12-02T20:13:08.368Z,3.47
2018-12-02T20:15:37.092Z,2.93
2018-12-02T20:18:05.576Z,4.27
2018-12-02T20:20:39.968Z,5.30
2018-12-02T20:23:08.416Z,3.53
2018-12-02T20:25:36.831Z,5.90
2018-12-02T20:28:07.320Z,3.70
2018-12-02T20:30:36.566Z,3.30
2018-12-02T20:33:05.732Z,3.20
2018-12-02T20:35:34.219Z,4.43
2018-12-02T20:38:02.662Z,3.27
2018-12-02T20:40:32.028Z,3.60
2018-12-02T20:43:00.519Z,3.73
2018-12-02T20:45:28.995Z,6.43
2018-12-02T20:47:57.404Z,5.30
2018-12-02T20:50:25.874Z,3.77
2018-12-02T20:52:54.279Z,9.80
2018-12-02T20:55:24.947Z,3.60
2018-12-02T20:57:55.230Z,4.80
2018-12-02T21:00:23.779Z,2.50
2018-12-02T21:03:24.929Z,4.43
2018-12-02T21:05:56.527Z,5.40
2018-12-02T21:08:24.939Z,4.20
2018-12-02T21:10:53.399Z,5.23
2018-12-02T21:13:21.853Z,3.93
2018-12-02T21:15:50.398Z,4.43
2018-12-02T21:18:18.919Z,6.90
2018-12-02T21:20:47.388Z,5.97
2018-12-02T21:23:15.972Z,5.77
2018-12-02T21:25:45.267Z,5.93
2018-12-02T21:28:13.822Z,6.23
2018-12-02T21:30:42.309Z,5.03
2018-12-02T21:33:11.043Z,5.90
2018-12-02T21:35:39.686Z,7.90
2018-12-02T21:38:08.206Z,4.67
2018-12-02T21:40:36.763Z,7.10
2018-12-02T21:43:05.396Z,7.63
2018-12-02T21:45:34.002Z,4.80
2018-12-02T21:48:03.158Z,6.10
2018-12-02T21:50:32.192Z,5.17
2018-12-02T21:53:01.513Z,5.10
2018-12-02T21:55:30.078Z,4.67
2018-12-02T21:57:58.622Z,5.60
2018-12-02T22:00:32.622Z,7.27
2018-12-02T22:03:01.224Z,4.17
2018-12-02T22:05:29.759Z,3.60
2018-12-02T22:07:58.461Z,3.30
2018-12-02T22:10:30.063Z,4.70
2018-12-02T22:12:57.830Z,6.57
2018-12-02T22:15:26.348Z,2.50
2018-12-02T22:17:54.887Z,2.60
2018-12-02T22:20:23.608Z,3.60
2018-12-02T22:22:52.217Z,5.30
2018-12-02T22:25:22.009Z,2.23
2018-12-02T22:27:55.691Z,1.80
2018-12-02T22:30:25.088Z,4.30
2018-12-02T22:32:53.907Z,2.63
2018-12-02T22:35:22.816Z,1.47
2018-12-02T22:37:51.828Z,1.73
2018-12-02T22:40:22.088Z,1.97
2018-12-02T22:42:51.092Z,3.53
2018-12-02T22:45:27.305Z,3.40
2018-12-02T22:47:55.914Z,6.90
2018-12-02T22:50:25.840Z,4.37
2018-12-02T22:52:56.267Z,1.10
2018-12-02T22:55:25.371Z,1.50
2018-12-02T22:57:54.032Z,1.47
2018-12-02T23:00:33.087Z,2.40
2018-12-02T23:03:03.789Z,1.30
2018-12-02T23:05:32.425Z,2.03
2018-12-02T23:08:01.503Z,1.80
2018-12-02T23:10:30.172Z,1.50
2018-12-02T23:12:58.722Z,1.00
2018-12-02T23:15:27.247Z,1.47
2018-12-02T23:17:55.828Z,2.03
2018-12-02T23:20:24.676Z,2.13
2018-12-02T23:22:53.212Z,1.73
2018-12-02T23:25:21.701Z,1.50
2018-12-02T23:27:50.189Z,2.20
2018-12-02T23:30:22.455Z,1.50
2018-12-02T23:32:50.960Z,1.50
2018-12-02T23:35:19.467Z,2.43
2018-12-02T23:37:48.001Z,1.97
2018-12-02T23:40:22.007Z,2.80
2018-12-02T23:42:50.775Z,3.20
2018-12-02T23:45:19.422Z,2.33
2018-12-02T23:47:48.052Z,1.30
2018-12-02T23:50:18.602Z,1.90
2018-12-02T23:52:47.227Z,2.10
2018-12-02T23:55:16.911Z,3.63
2018-12-02T23:57:45.550Z,1.57
